ADDS METAR Data INFO
IDs: Format: Raw Decoded Include TAF

Data at: 1155 UTC 25 Jun 2018

KCPT 251055Z AUTO 18013KT 10SM BKN028 BKN033 26/23 A2996 RMK AO2
KCPT 251035Z AUTO 17013KT 10SM FEW025 BKN030 26/23 A2995 RMK AO2
KCPT 251015Z AUTO 18008G17KT 10SM BKN028 BKN034 26/23 A2995 RMK AO2
KCPT 250955Z AUTO 17013G19KT 10SM FEW023 BKN029 OVC034 26/23 A2993 RMK AO2
KCPT 250935Z AUTO 18016KT 10SM SCT024 BKN030 OVC034 26/22 A2992 RMK AO2
KCPT 250915Z AUTO 18013G19KT 10SM BKN023 OVC030 26/23 A2991 RMK AO2
KCPT 250855Z AUTO 18014G19KT 10SM BKN021 OVC028 26/23 A2991 RMK AO2
KCPT 250835Z AUTO 18019G25KT 10SM BKN022 OVC026 26/23 A2988 RMK AO2
KCPT 250815Z AUTO 19022G28KT 10SM OVC021 26/23 A2988 RMK AO2
KCPT 250755Z AUTO 17018G26KT 10SM BKN021 26/23 A2987 RMK AO2
KCPT 250735Z AUTO 17015G27KT 10SM BKN022 27/23 A2987 RMK AO2
KCPT 250655Z AUTO 17015G24KT 10SM CLR 27/23 A2986 RMK AO2
KCPT 250635Z AUTO 16013G26KT 10SM CLR 27/22 A2987 RMK AO2
KCPT 250615Z AUTO 16016G25KT 10SM CLR 27/22 A2987 RMK AO2
KCPT 250555Z AUTO 16016G23KT 10SM CLR 28/22 A2987 RMK AO2
KCPT 250535Z AUTO 16017G24KT 10SM CLR 28/22 A2987 RMK AO2
KCPT 250455Z AUTO 16016G24KT 10SM CLR 29/22 A2988 RMK AO2
KCPT 250435Z AUTO 16013KT 10SM CLR 29/22 A2988 RMK AO2
KCPT 250415Z AUTO 16013KT 10SM CLR 29/21 A2988 RMK AO2
KCPT 250355Z AUTO 16015G21KT 10SM CLR 30/21 A2988 RMK AO2
KCPT 250335Z AUTO 16012G19KT 10SM CLR 30/21 A2988 RMK AO2
KCPT 250315Z AUTO 15013G18KT 10SM CLR 30/21 A2987 RMK AO2
KCPT 250255Z AUTO 15012G17KT 10SM CLR 31/21 A2986 RMK AO2
KCPT 250235Z AUTO 15012G21KT 10SM CLR 31/20 A2986 RMK AO2
KCPT 250215Z AUTO 15013KT 10SM CLR 31/20 A2986 RMK AO2
KCPT 250135Z AUTO 14013G20KT 10SM FEW060 32/20 A2986 RMK AO2
KCPT 250115Z AUTO 14014KT 10SM BKN060 33/20 A2986 RMK AO2
KCPT 250055Z AUTO 15012G17KT 10SM BKN065 34/20 A2986 RMK AO2
KCPT 250035Z AUTO 16012G21KT 10SM CLR 34/19 A2985 RMK AO2
KCPT 250015Z AUTO 16016G21KT 10SM CLR 35/18 A2984 RMK AO2
KCPT 242355Z AUTO 15014G23KT 10SM CLR 35/18 A2984 RMK AO2
KCPT 242335Z AUTO 16020G26KT 10SM FEW065 36/19 A2982 RMK AO2
KCPT 242315Z AUTO 15016G23KT 10SM CLR 36/19 A2982 RMK AO2
KCPT 242235Z AUTO 17021G32KT 10SM CLR 36/19 A2979 RMK AO2
KCPT 242215Z AUTO 16018G32KT 10SM CLR 37/19 A2979 RMK AO2
KCPT 242155Z AUTO 16016G29KT 10SM CLR 37/19 A2980 RMK AO2
KCPT 242135Z AUTO 17017G31KT 10SM CLR 37/19 A2980 RMK AO2
KCPT 242115Z AUTO 18023G34KT 10SM CLR 37/19 A2980 RMK AO2
KCPT 242055Z AUTO 17023G29KT 10SM CLR 37/19 A2980 RMK AO2
KCPT 242035Z AUTO 17022G29KT 10SM CLR 37/19 A2980 RMK AO2
KCPT 242015Z AUTO 17022G28KT 10SM CLR 36/19 A2981 RMK AO2
KCPT 241935Z AUTO 17019G27KT 10SM CLR 36/19 A2983 RMK AO2
KCPT 241915Z AUTO 17020KT 10SM CLR 36/20 A2984 RMK AO2
KCPT 241855Z AUTO 16015G25KT 10SM CLR 35/20 A2984 RMK AO2
KCPT 241835Z AUTO 17018G24KT 10SM CLR 35/20 A2985 RMK AO2
KCPT 241815Z AUTO 16012G21KT 9SM CLR 34/20 A2986 RMK AO2
KCPT 241755Z AUTO 17017G22KT 10SM CLR 34/21 A2986 RMK AO2
KCPT 241735Z AUTO 16015KT 10SM CLR 34/21 A2987 RMK AO2
KCPT 241715Z AUTO 16011G21KT 130V200 10SM FEW041 33/21 A2987 RMK AO2
KCPT 241655Z AUTO 17014G21KT 10SM FEW039 33/21 A2988 RMK AO2
KCPT 241635Z AUTO 17014G20KT 10SM FEW037 32/22 A2988 RMK AO2
KCPT 241615Z AUTO 14012G19KT 9SM FEW029 FEW037 31/22 A2989 RMK AO2
KCPT 241555Z AUTO 15013G19KT 9SM FEW030 SCT035 30/22 A2988 RMK AO2
KCPT 241535Z AUTO 16013G20KT 10SM FEW030 30/23 A2989 RMK AO2
KCPT 241515Z AUTO 17015G20KT 10SM SCT028 30/22 A2989 RMK AO2
KCPT 241455Z AUTO 16017KT 10SM SCT027 SCT032 29/22 A2988 RMK AO2
KCPT 241435Z AUTO 18013G22KT 10SM SCT029 29/22 A2988 RMK AO2
KCPT 241415Z AUTO 18018KT 10SM SCT027 SCT033 29/22 A2988 RMK AO2
KCPT 241355Z AUTO 18016G23KT 10SM FEW026 28/22 A2987 RMK AO2
KCPT 241335Z AUTO 18017G24KT 10SM FEW026 28/22 A2985 RMK AO2
KCPT 241315Z AUTO 18017G24KT 10SM SCT027 27/22 A2984 RMK AO2
KCPT 241255Z AUTO 18013G21KT 10SM BKN027 27/22 A2984 RMK AO2
KCPT 241235Z AUTO 19013G23KT 9SM BKN027 26/22 A2983 RMK AO2
KCPT 241215Z AUTO 20015G20KT 9SM SCT027 26/22 A2981 RMK AO2
KCPT 241155Z AUTO 19013G30KT 9SM CLR 26/22 A2980 RMK AO2
KCPT 241115Z AUTO 19023G31KT 10SM CLR 26/22 A2976 RMK AO2
KCPT 241055Z AUTO 19023G37KT 10SM CLR 26/22 A2974 RMK AO2
KCPT 241035Z AUTO 19025G37KT 10SM CLR 26/22 A2972 RMK AO2
KCPT 241015Z AUTO 18029G39KT 10SM CLR 26/23 A2969 RMK AO2
KCPT 240915Z AUTO 17022G31KT 10SM CLR 27/23 A2971 RMK AO2
KCPT 240855Z AUTO 18019G31KT 10SM CLR 27/23 A2973 RMK AO2
KCPT 240835Z AUTO 19022G31KT 10SM CLR 27/23 A2974 RMK AO2
KCPT 240815Z AUTO 17020G27KT 10SM CLR 27/23 A2974 RMK AO2
KCPT 240755Z AUTO 17016G25KT 10SM CLR 27/23 A2974 RMK AO2
KCPT 240735Z AUTO 16018G27KT 10SM CLR 27/23 A2976 RMK AO2
KCPT 240715Z AUTO 17017KT 10SM FEW085 FEW110 28/23 A2979 RMK AO2 LTG DSNT SW AND NW
KCPT 240655Z AUTO 17013G23KT 10SM TS BKN120 28/23 A2983 RMK AO2 LTG DSNT ALQDS
KCPT 240635Z AUTO 19011G20KT 9SM VCTS SCT120 28/23 A2985 RMK AO2 LTG DSNT ALQDS
KCPT 240615Z AUTO 17018G24KT 10SM VCTS CLR 28/23 A2983 RMK AO2 LTG DSNT SW-N
KCPT 240555Z AUTO 18017G22KT 10SM CLR 29/23 A2984 RMK AO2 LTG DSNT W AND NW
KCPT 240535Z AUTO 17017G23KT 10SM CLR 29/23 A2985 RMK AO2 LTG DSNT W AND NW
KCPT 240515Z AUTO 18015KT 10SM CLR 29/23 A2986 RMK AO2 LTG DSNT NW
KCPT 240455Z AUTO 17013G20KT 10SM CLR 29/23 A2983 RMK AO2
KCPT 240415Z AUTO 16015G21KT 10SM CLR 30/22 A2981 RMK AO2
KCPT 240355Z AUTO 15014G21KT 10SM CLR 30/22 A2980 RMK AO2
KCPT 240335Z AUTO 15015G21KT 10SM CLR 30/22 A2977 RMK AO2 LTG DSNT NW
KCPT 240315Z AUTO 15015KT 10SM CLR 31/21 A2977 RMK AO2 LTG DSNT NW
KCPT 240255Z AUTO 15012G21KT 10SM CLR 31/21 A2976 RMK AO2
KCPT 240235Z AUTO 15012KT 10SM CLR 31/20 A2976 RMK AO2
KCPT 240215Z AUTO 15010KT 10SM CLR 31/20 A2976 RMK AO2
KCPT 240155Z AUTO 14011G16KT 10SM CLR 32/20 A2975 RMK AO2
KCPT 240135Z AUTO 14011KT 10SM CLR 32/20 A2975 RMK AO2
KCPT 240115Z AUTO 14011KT 10SM CLR 33/20 A2975 RMK AO2
KCPT 240055Z AUTO 14012G21KT 10SM CLR 34/19 A2975 RMK AO2
KCPT 240015Z AUTO 15014G20KT 10SM CLR 35/19 A2974 RMK AO2